Union Star, Missouri
Current Conditions -  °F | °C
As of 4:53 PM on Thursday 23 Oct 2014 (Local Time) from KSTJ Reporting Station
Clear Clear  
Wind Chill: 72°   Ceiling: Unl
Heat Index: 72°   Visibility: 10mi
Dew Point: 58°   Wind: 6mph
Humidity: 61%   Direction: 190°S
Pressure: 30.02"   Gusts: NA
Location:  39.98°N, 94.59°W
Report Text: KSTJ 232153Z AUTO 19005KT 10SM CLR 22/14 A3002 RMK AO2 SLP162 T02220144
Loading
Personal Weather Stations






























Interactive Weather Map
Tropical Storm Tracking
New forecast layout! Learn more

10-Day Weather Forecast

Advertisements
Track Severe Weather on mobile